Lick Mountain, Arkansas
Current Conditions -  °F | °C
As of 4:35 PM on Sunday 21 Dec 2014 (Local Time) from KCCA Reporting Station
Overcast Overcast  
Wind Chill: 50°   Ceiling: 7000
Heat Index: 50°   Visibility: 8mi
Dew Point: 37°   Wind: 0mph
Humidity: 62%   Direction: NA
Pressure: 29.98"   Gusts: NA
Location:  35.4084°N, 92.5669°W
Report Text: KCCA 212235Z AUTO 00000KT 8SM SCT050 BKN070 OVC090 10/03 A2998 RMK AO2
Loading
Personal Weather Stations






























Interactive Weather Map New forecast layout! Learn more

10-Day Weather Forecast

Advertisements
Track Severe Weather on mobile